Time;durP1;ratioP1;P1;durP2;ratioP2;P2;SDS_P1;SDS_P2;PMS_P1;PMS_P2;Temp;Humidity;BMP_temperature;BMP_pressure;BME280_temperature;BME280_humidity;BME280_pressure;Samples;Min_cycle;Max_cycle;Signal;HPM_P1;HPM_P2
2022/05/05 00:01:57;;;;;;;6.90;3.83;;;;;;;14.07;76.05;101692.06;7392846;19;20013;-63
2022/05/05 00:04:25;;;;;;;7.78;4.47;;;;;;;14.07;76.17;101692.06;7389643;19;20022;-64
2022/05/05 00:06:52;;;;;;;7.80;3.40;;;;;;;14.06;76.03;101685.13;7390139;19;20245;-64
2022/05/05 00:09:19;;;;;;;6.72;3.70;;;;;;;14.03;76.67;101688.91;7392861;19;20357;-63
2022/05/05 00:14:24;;;;;;;8.07;4.45;;;;;;;14.00;76.50;101680.44;7392379;19;20092;-63
2022/05/05 00:16:53;;;;;;;5.80;3.67;;;;;;;13.99;76.44;101673.50;7391507;19;20024;-64
2022/05/05 00:19:20;;;;;;;8.27;4.65;;;;;;;13.99;76.92;101689.38;7391963;19;20460;-64
2022/05/05 00:21:47;;;;;;;6.90;4.55;;;;;;;13.97;76.92;101684.22;7390729;19;20014;-64
2022/05/05 00:24:16;;;;;;;7.13;4.20;;;;;;;13.95;77.48;101677.44;7392927;19;20083;-65
2022/05/05 00:26:44;;;;;;;8.00;4.50;;;;;;;13.94;76.90;101689.00;7389761;19;20015;-65
2022/05/05 00:29:11;;;;;;;6.53;4.20;;;;;;;13.88;77.99;101682.50;7388645;19;20022;-65
2022/05/05 00:31:38;;;;;;;6.10;4.05;;;;;;;13.86;77.48;101675.72;7388998;19;20007;-65
2022/05/05 00:34:06;;;;;;;8.52;4.55;;;;;;;13.82;77.45;101677.81;7391509;19;20025;-64
2022/05/05 00:36:33;;;;;;;6.20;3.72;;;;;;;13.76;77.93;101678.44;7388598;19;20648;-64
2022/05/05 00:39:00;;;;;;;10.68;4.53;;;;;;;13.70;77.81;101679.06;7387907;19;20110;-64
2022/05/05 00:41:35;;;;;;;7.50;4.20;;;;;;;13.67;77.73;101674.88;7390915;19;20015;-65
2022/05/05 00:44:03;;;;;;;7.45;3.80;;;;;;;13.64;77.68;101680.47;7386695;19;20115;-63
2022/05/05 00:46:34;;;;;;;6.03;3.85;;;;;;;13.61;77.71;101685.25;7390140;19;20359;-64
2022/05/05 00:49:12;;;;;;;6.72;3.85;;;;;;;13.59;78.38;101681.91;7390023;19;20346;-64
2022/05/05 00:51:39;;;;;;;8.30;5.00;;;;;;;13.53;77.62;101680.72;7392217;19;20018;-64
2022/05/05 00:54:06;;;;;;;6.30;3.47;;;;;;;13.49;78.14;101689.94;7387731;19;20519;-63
2022/05/05 00:56:33;;;;;;;7.35;3.80;;;;;;;13.48;78.20;101693.53;7388941;19;20023;-63
2022/05/05 00:59:01;;;;;;;7.72;4.15;;;;;;;13.44;77.86;101694.84;7387554;19;20629;-65
2022/05/05 01:01:31;;;;;;;7.68;3.97;;;;;;;13.41;78.46;101686.38;7387273;19;20340;-65
2022/05/05 01:04:00;;;;;;;8.15;3.95;;;;;;;13.38;78.11;101687.50;7387274;19;20019;-64
2022/05/05 01:06:30;;;;;;;8.98;4.07;;;;;;;13.37;78.51;101682.34;7387192;19;20018;-63
2022/05/05 01:09:05;;;;;;;9.65;4.18;;;;;;;13.36;78.35;101676.22;7388434;19;20014;-64
2022/05/05 01:11:32;;;;;;;8.02;3.97;;;;;;;13.38;78.46;101690.13;7391003;19;20010;-64
2022/05/05 01:13:59;;;;;;;10.15;4.30;;;;;;;13.39;78.97;101677.75;7390993;19;20373;-64
2022/05/05 01:16:27;;;;;;;10.10;4.40;;;;;;;13.40;78.61;101682.06;7389823;19;20333;-63
2022/05/05 01:18:55;;;;;;;6.63;3.67;;;;;;;13.41;78.99;101684.53;7391188;19;20809;-63
2022/05/05 01:21:23;;;;;;;7.30;3.50;;;;;;;13.39;78.19;101678.59;7388434;19;20034;-63
2022/05/05 01:23:50;;;;;;;9.57;4.00;;;;;;;13.34;78.48;101680.00;7390514;19;20082;-65
2022/05/05 01:28:56;;;;;;;7.18;3.97;;;;;;;13.31;79.06;101688.25;7393785;19;20027;-64
2022/05/05 01:31:23;;;;;;;6.22;3.28;;;;;;;13.32;79.13;101687.25;7388709;19;20340;-64
2022/05/05 01:33:50;;;;;;;6.97;3.83;;;;;;;13.34;79.06;101693.22;7390693;19;20015;-63
2022/05/05 01:36:18;;;;;;;5.70;3.08;;;;;;;13.30;78.26;101690.06;7385752;19;20023;-63
2022/05/05 01:38:45;;;;;;;5.30;3.15;;;;;;;13.27;78.59;101685.91;7389133;19;20078;-64
2022/05/05 01:41:13;;;;;;;7.88;3.53;;;;;;;13.24;78.91;101688.84;7388667;19;20017;-65
2022/05/05 01:43:44;;;;;;;7.32;3.42;;;;;;;13.17;78.42;101689.56;7388936;19;20346;-64
2022/05/05 01:46:11;;;;;;;7.35;4.50;;;;;;;13.16;79.56;101699.31;7386673;19;20018;-65
2022/05/05 01:48:38;;;;;;;7.57;3.63;;;;;;;13.18;79.54;101693.88;7386880;19;20633;-64
2022/05/05 01:51:05;;;;;;;7.75;3.70;;;;;;;13.15;79.89;101691.56;7387177;19;20317;-64
2022/05/05 01:56:12;;;;;;;7.35;2.95;;;;;;;13.11;79.39;101693.63;7386354;19;20010;-65
2022/05/05 01:58:42;;;;;;;7.55;4.15;;;;;;;13.07;79.13;101688.75;7386673;19;20011;-65
2022/05/05 02:01:10;;;;;;;7.72;3.72;;;;;;;13.07;79.45;101696.69;7386600;19;20464;-64
2022/05/05 02:03:38;;;;;;;6.47;3.72;;;;;;;13.06;79.47;101692.38;7388036;19;20026;-65
2022/05/05 02:06:05;;;;;;;9.10;3.90;;;;;;;13.07;79.54;101696.69;7385762;19;20026;-65
2022/05/05 02:08:32;;;;;;;7.45;4.07;;;;;;;13.09;79.48;101702.69;7383373;19;20021;-64
2022/05/05 02:10:59;;;;;;;6.78;3.55;;;;;;;13.10;78.96;101709.63;7391451;19;20127;-65
2022/05/05 02:13:26;;;;;;;5.28;3.35;;;;;;;13.07;78.81;101700.16;7387562;19;20440;-64
2022/05/05 02:15:53;;;;;;;7.20;3.60;;;;;;;13.04;79.04;101703.13;7388548;19;20360;-64
2022/05/05 02:18:20;;;;;;;6.15;3.88;;;;;;;13.05;78.59;101709.25;7388052;19;20047;-65
2022/05/05 02:20:47;;;;;;;6.45;3.90;;;;;;;13.05;78.75;101702.16;7387877;19;20031;-66
2022/05/05 02:23:15;;;;;;;7.07;3.53;;;;;;;13.03;78.50;101705.91;7387505;19;20026;-65
2022/05/05 02:25:42;;;;;;;7.65;3.67;;;;;;;13.01;78.84;101699.91;7387584;19;20018;-65
2022/05/05 02:28:09;;;;;;;6.65;3.75;;;;;;;13.00;79.09;101706.22;7383808;19;20046;-64
2022/05/05 02:30:37;;;;;;;7.72;3.67;;;;;;;13.01;78.60;101707.84;7386476;19;20382;-66
2022/05/05 02:33:04;;;;;;;6.10;3.80;;;;;;;13.00;78.97;101714.13;7391275;19;20026;-66
2022/05/05 02:35:31;;;;;;;8.05;3.63;;;;;;;12.98;78.53;101708.16;7384958;19;20086;-64
2022/05/05 02:40:38;;;;;;;5.97;3.28;;;;;;;12.93;78.34;101703.31;7385163;19;20638;-63
2022/05/05 02:43:06;;;;;;;8.95;3.75;;;;;;;12.88;78.83;101704.72;7385233;19;20583;-66
2022/05/05 02:45:33;;;;;;;7.55;3.78;;;;;;;12.84;79.10;101710.31;7388320;19;20021;-65
2022/05/05 02:48:01;;;;;;;8.23;3.83;;;;;;;12.76;78.66;101715.47;7386595;19;20118;-65
2022/05/05 02:50:28;;;;;;;7.10;3.85;;;;;;;12.74;79.31;101724.53;7384770;19;20010;-65
2022/05/05 02:52:55;;;;;;;10.23;3.75;;;;;;;12.70;79.16;101715.19;7387504;19;20021;-65
2022/05/05 02:55:22;;;;;;;8.43;4.15;;;;;;;12.65;79.15;101717.44;7384118;19;20497;-65
2022/05/05 02:57:51;;;;;;;10.15;4.93;;;;;;;12.65;79.84;101720.09;7386051;19;20429;-65
2022/05/05 03:00:20;;;;;;;7.68;4.32;;;;;;;12.67;80.06;101715.50;7386957;19;20042;-64
2022/05/05 03:02:48;;;;;;;7.22;4.35;;;;;;;12.64;79.33;101716.63;7383733;19;20034;-64
2022/05/05 03:05:15;;;;;;;7.63;3.53;;;;;;;12.65;79.73;101714.81;7383736;19;20011;-64
2022/05/05 03:07:43;;;;;;;7.57;3.75;;;;;;;12.66;79.23;101713.84;7380882;19;20078;-64
2022/05/05 03:10:11;;;;;;;6.70;4.07;;;;;;;12.65;79.13;101718.28;7383487;19;20010;-64
2022/05/05 03:12:39;;;;;;;7.97;4.00;;;;;;;12.65;79.50;101723.56;7387596;19;20119;-65
2022/05/05 03:15:07;;;;;;;9.13;4.22;;;;;;;12.63;79.27;101722.06;7383609;19;20043;-64
2022/05/05 03:17:35;;;;;;;9.35;4.28;;;;;;;12.63;79.90;101714.13;7387957;19;20082;-63
2022/05/05 03:20:03;;;;;;;11.90;4.60;;;;;;;12.61;79.82;101719.53;7382249;19;20460;-65
2022/05/05 03:22:31;;;;;;;7.65;4.20;;;;;;;12.62;80.09;101717.75;7387307;19;20015;-64
2022/05/05 03:24:58;;;;;;;9.10;4.95;;;;;;;12.61;79.55;101721.34;7386115;19;20028;-64
2022/05/05 03:27:25;;;;;;;9.05;3.92;;;;;;;12.58;79.24;101719.84;7384769;19;20086;-65
2022/05/05 03:29:52;;;;;;;9.70;4.75;;;;;;;12.57;79.75;101715.53;7385949;19;20078;-63
2022/05/05 03:32:19;;;;;;;7.80;4.13;;;;;;;12.56;80.17;101720.94;7385748;19;20880;-65
2022/05/05 03:34:46;;;;;;;8.90;4.22;;;;;;;12.49;79.75;101722.50;7385161;19;20013;-64
2022/05/05 03:37:13;;;;;;;11.57;5.05;;;;;;;12.44;79.97;101725.59;7384229;19;20590;-63
2022/05/05 03:39:40;;;;;;;10.00;4.65;;;;;;;12.43;80.54;101732.66;7385126;19;20010;-65
2022/05/05 03:42:07;;;;;;;11.23;5.10;;;;;;;12.41;80.18;101720.56;7382657;19;20046;-64
2022/05/05 03:44:34;;;;;;;8.10;4.50;;;;;;;12.35;80.08;101724.63;7385162;19;20029;-64
2022/05/05 03:47:02;;;;;;;11.27;4.70;;;;;;;12.36;80.68;101725.44;7381742;19;20038;-65
2022/05/05 03:49:28;;;;;;;10.05;4.88;;;;;;;12.36;80.63;101734.19;7386026;19;20019;-64
2022/05/05 03:51:56;;;;;;;9.02;4.85;;;;;;;12.33;80.12;101725.75;7386331;19;20028;-64
2022/05/05 03:54:24;;;;;;;12.63;4.65;;;;;;;12.34;80.84;101730.84;7385158;19;20028;-63
2022/05/05 03:56:51;;;;;;;8.80;4.38;;;;;;;12.33;80.82;101737.13;7384555;19;20031;-64
2022/05/05 03:59:18;;;;;;;10.70;5.28;;;;;;;12.31;80.99;101739.06;7384950;19;20138;-64
2022/05/05 04:01:45;;;;;;;8.82;4.55;;;;;;;12.31;80.73;101736.44;7384719;19;20006;-65
2022/05/05 04:04:12;;;;;;;9.25;4.80;;;;;;;12.28;80.85;101742.00;7385092;19;20006;-63
2022/05/05 04:06:39;;;;;;;10.25;4.90;;;;;;;12.27;80.70;101735.06;7384176;19;20027;-63
2022/05/05 04:09:06;;;;;;;10.70;4.45;;;;;;;12.28;80.62;101733.25;7383712;19;20447;-64
2022/05/05 04:11:34;;;;;;;9.93;4.68;;;;;;;12.24;80.40;101742.44;7382093;19;20006;-65
2022/05/05 04:14:03;;;;;;;11.75;5.03;;;;;;;12.23;80.58;101744.22;7384142;19;20010;-64
2022/05/05 04:16:32;;;;;;;9.82;4.72;;;;;;;12.23;79.94;101751.31;7385908;19;20517;-63
2022/05/05 04:19:03;;;;;;;9.00;5.20;;;;;;;12.22;80.58;101747.00;7386060;19;20010;-64
2022/05/05 04:21:31;;;;;;;11.60;4.88;;;;;;;12.22;80.41;101758.41;7386664;19;20038;-64
2022/05/05 04:23:58;;;;;;;9.75;4.72;;;;;;;12.22;80.93;101755.75;7391914;19;20359;-63
2022/05/05 04:26:27;;;;;;;9.35;4.18;;;;;;;12.21;80.73;101764.63;7391534;19;20059;-64
2022/05/05 04:28:56;;;;;;;9.75;5.22;;;;;;;12.21;80.76;101766.44;7389364;19;20014;-64
2022/05/05 04:31:28;;;;;;;8.02;4.63;;;;;;;12.21;80.46;101751.44;7392375;19;20014;-66
2022/05/05 04:33:57;;;;;;;9.10;4.95;;;;;;;12.21;80.23;101759.34;7388880;19;20015;-64
2022/05/05 04:36:25;;;;;;;10.15;4.72;;;;;;;12.20;79.98;101762.97;7391538;19;20090;-63
2022/05/05 04:38:52;;;;;;;10.13;4.85;;;;;;;12.17;80.34;101775.63;7392867;19;20345;-64
2022/05/05 04:41:21;;;;;;;8.07;4.40;;;;;;;12.15;80.97;101775.75;7390249;19;20136;-63
2022/05/05 04:43:48;;;;;;;11.43;4.80;;;;;;;12.15;81.26;101782.81;7389214;19;20015;-63
2022/05/05 04:46:15;;;;;;;10.52;5.15;;;;;;;12.13;80.40;101782.97;7389361;19;20043;-65
2022/05/05 04:48:43;;;;;;;10.93;5.22;;;;;;;12.11;80.79;101781.44;7392317;19;20015;-64
2022/05/05 04:51:13;;;;;;;9.57;5.47;;;;;;;12.09;80.71;101784.22;7390746;19;20014;-66
2022/05/05 04:53:41;;;;;;;11.63;5.22;;;;;;;12.10;81.28;101795.59;7391587;19;20015;-64
2022/05/05 04:56:10;;;;;;;10.52;5.18;;;;;;;12.10;81.30;101787.69;7388659;19;20539;-65
2022/05/05 04:58:37;;;;;;;10.05;5.07;;;;;;;12.10;81.10;101788.53;7390368;19;20032;-63
2022/05/05 05:01:04;;;;;;;10.40;4.97;;;;;;;12.06;80.50;101788.94;7389864;19;20502;-65
2022/05/05 05:03:32;;;;;;;13.05;5.75;;;;;;;12.04;81.11;101786.44;7391879;19;20375;-64
2022/05/05 05:06:01;;;;;;;9.68;5.15;;;;;;;12.06;81.25;101791.56;7389995;19;20030;-63
2022/05/05 05:08:34;;;;;;;10.38;4.82;;;;;;;12.05;81.09;101789.91;7390061;19;20586;-64
2022/05/05 05:11:01;;;;;;;;;;;;;;;12.03;81.19;101783.94;7390197;19;20015;-63
2022/05/05 05:13:28;;;;;;;12.85;5.15;;;;;;;11.98;81.26;101789.66;7393734;19;20337;-63
2022/05/05 05:16:01;;;;;;;9.63;5.32;;;;;;;11.95;81.37;101788.09;7390198;19;20019;-65
2022/05/05 05:18:40;;;;;;;12.25;5.28;;;;;;;11.95;81.61;101788.09;7388562;19;20014;-64
2022/05/05 05:21:08;;;;;;;11.05;5.10;;;;;;;11.98;81.63;101802.84;7393221;19;20018;-64
2022/05/05 05:23:35;;;;;;;10.50;5.30;;;;;;;12.03;81.00;101800.63;7388973;19;20536;-65
2022/05/05 05:26:03;;;;;;;9.88;4.78;;;;;;;12.06;80.78;101804.78;7391489;19;20015;-65
2022/05/05 05:28:30;;;;;;;12.82;5.57;;;;;;;12.04;80.91;101809.38;7388069;19;20022;-66
2022/05/05 05:30:57;;;;;;;10.77;4.63;;;;;;;12.05;80.74;101811.00;7392950;19;20022;-63
2022/05/05 05:33:25;;;;;;;10.80;4.95;;;;;;;12.07;81.04;101814.34;7386523;19;20488;-63
2022/05/05 05:35:53;;;;;;;12.35;5.05;;;;;;;12.12;81.07;101812.97;7386775;19;20045;-64
2022/05/05 05:38:23;;;;;;;10.43;4.80;;;;;;;12.18;80.76;101819.50;7391265;19;20488;-63
2022/05/05 05:40:51;;;;;;;9.93;5.43;;;;;;;12.24;81.17;101818.94;7387122;19;20459;-65
2022/05/05 05:43:21;;;;;;;10.63;4.95;;;;;;;12.29;80.69;101822.00;7386028;19;20011;-64
2022/05/05 05:45:48;;;;;;;12.52;5.60;;;;;;;12.29;79.74;101820.19;7389029;19;20041;-64
2022/05/05 05:48:15;;;;;;;11.48;4.93;;;;;;;12.29;80.04;101833.38;7390103;19;20018;-65
2022/05/05 05:50:42;;;;;;;8.38;4.32;;;;;;;12.31;79.53;101831.44;7390665;19;20141;-64
2022/05/05 05:53:10;;;;;;;10.50;5.15;;;;;;;12.34;79.80;101833.78;7388199;19;20458;-64
2022/05/05 05:55:57;;;;;;;9.98;4.38;;;;;;;12.38;79.84;101831.72;7387759;19;20698;-64
2022/05/05 05:58:24;;;;;;;8.93;4.25;;;;;;;12.39;80.04;101834.19;7387145;19;20010;-65
2022/05/05 06:00:51;;;;;;;10.23;5.05;;;;;;;12.43;79.98;101835.63;7392474;19;20014;-64
2022/05/05 06:06:03;;;;;;;11.35;4.68;;;;;;;12.48;79.21;101840.47;7387413;19;20015;-64
2022/05/05 06:08:31;;;;;;;10.35;4.65;;;;;;;12.52;79.30;101835.72;7388906;19;20021;-64
2022/05/05 06:10:59;;;;;;;8.23;3.90;;;;;;;12.55;79.92;101838.06;7385710;19;20096;-65
2022/05/05 06:13:26;;;;;;;9.80;4.45;;;;;;;12.58;79.73;101836.00;7387354;19;20017;-64
2022/05/05 06:15:53;;;;;;;7.90;3.90;;;;;;;12.65;78.97;101844.19;7389201;19;20011;-65
2022/05/05 06:18:22;;;;;;;9.60;3.83;;;;;;;12.63;78.94;101852.25;7387141;19;20034;-64
2022/05/05 06:20:49;;;;;;;8.65;3.85;;;;;;;12.66;79.10;101844.06;7389479;19;20483;-64
2022/05/05 06:23:16;;;;;;;10.25;4.30;;;;;;;12.69;79.30;101846.44;7388703;19;20074;-65
2022/05/05 06:25:43;;;;;;;7.50;3.42;;;;;;;12.71;78.54;101846.25;7385888;19;20014;-65
2022/05/05 06:28:10;;;;;;;12.38;5.88;;;;;;;12.77;79.28;101851.81;7384856;19;20006;-64
2022/05/05 06:30:37;;;;;;;9.20;4.05;;;;;;;12.81;78.65;101853.19;7388503;19;20021;-64
2022/05/05 06:33:05;;;;;;;6.80;3.00;;;;;;;12.85;78.58;101851.94;7386062;19;20037;-66
2022/05/05 06:35:32;;;;;;;9.07;4.70;;;;;;;12.91;78.36;101855.81;7386452;19;20015;-65
2022/05/05 06:37:59;;;;;;;6.38;3.45;;;;;;;12.93;77.31;101853.03;7386553;19;20011;-67
2022/05/05 06:40:26;;;;;;;7.68;3.58;;;;;;;12.94;77.83;101854.72;7386659;19;20010;-66
2022/05/05 06:42:53;;;;;;;9.13;3.85;;;;;;;12.99;78.27;101855.97;7387839;19;20010;-66
2022/05/05 06:45:22;;;;;;;9.93;4.55;;;;;;;13.08;78.03;101863.03;7380137;19;20018;-65
2022/05/05 06:47:49;;;;;;;5.82;3.40;;;;;;;13.15;77.57;101863.31;7388014;19;20554;-65
2022/05/05 06:50:21;;;;;;;7.47;3.38;;;;;;;13.18;76.71;101861.22;7389249;19;20444;-65
2022/05/05 06:52:49;;;;;;;8.65;4.07;;;;;;;13.21;77.05;101863.56;7386771;19;20098;-64
2022/05/05 06:55:16;;;;;;;6.53;2.90;;;;;;;13.26;76.95;101866.59;7386432;19;20463;-65
2022/05/05 06:57:43;;;;;;;7.65;3.70;;;;;;;13.32;76.24;101865.19;7388679;19;20017;-65
2022/05/05 07:00:12;;;;;;;9.48;3.25;;;;;;;13.34;76.77;101876.47;7388943;19;20014;-65
2022/05/05 07:02:42;;;;;;;7.22;3.60;;;;;;;13.39;76.35;101878.66;7384059;19;20007;-66
2022/05/05 07:07:50;;;;;;;7.68;3.65;;;;;;;13.49;77.38;101882.09;7385146;19;20209;-64
2022/05/05 07:13:00;;;;;;;5.32;2.70;;;;;;;13.62;76.44;101885.25;7383408;19;20011;-64
2022/05/05 07:15:27;;;;;;;6.97;2.90;;;;;;;13.67;76.43;101883.81;7383162;19;20010;-65
2022/05/05 07:17:57;;;;;;;5.85;2.10;;;;;;;13.76;75.12;101886.59;7386944;19;20017;-63
2022/05/05 07:20:24;;;;;;;4.57;2.30;;;;;;;13.81;75.20;101885.16;7387472;19;20153;-65
2022/05/05 07:22:51;;;;;;;8.85;4.03;;;;;;;13.82;75.41;101893.91;7384710;19;20353;-63
2022/05/05 07:25:19;;;;;;;11.73;4.00;;;;;;;13.85;74.48;101899.75;7384987;19;20037;-64
2022/05/05 07:27:46;;;;;;;15.25;8.55;;;;;;;13.88;75.65;101896.81;7383416;19;20014;-64
2022/05/05 07:30:14;;;;;;;6.22;2.63;;;;;;;13.90;74.46;101897.50;7384622;19;20030;-65
2022/05/05 07:32:42;;;;;;;9.95;4.47;;;;;;;13.95;74.97;101900.53;7383941;19;20007;-64
2022/05/05 07:35:11;;;;;;;9.85;3.95;;;;;;;14.03;75.16;101902.44;7382080;19;20055;-66
2022/05/05 07:37:39;;;;;;;6.78;2.72;;;;;;;14.13;75.85;101903.19;7384984;19;20053;-65
2022/05/05 07:40:07;;;;;;;8.23;3.10;;;;;;;14.24;75.26;101905.63;7382977;19;20030;-64
2022/05/05 07:42:37;;;;;;;6.65;2.03;;;;;;;14.30;73.34;101909.50;7382282;19;20011;-64
2022/05/05 07:45:05;;;;;;;6.28;2.28;;;;;;;14.36;73.52;101909.78;7381154;19;20011;-64
2022/05/05 07:47:35;;;;;;;6.85;2.50;;;;;;;14.50;72.14;101916.34;7383156;19;20380;-64
2022/05/05 07:50:04;;;;;;;4.65;1.45;;;;;;;14.66;71.56;101918.31;7385120;19;20708;-63
2022/05/05 07:52:31;;;;;;;7.13;1.88;;;;;;;14.86;71.51;101917.16;7384482;19;20026;-63
2022/05/05 07:54:58;;;;;;;4.30;1.67;;;;;;;15.07;69.45;101922.97;7384450;19;20475;-63
2022/05/05 07:57:25;;;;;;;4.63;1.60;;;;;;;15.28;68.63;101922.59;7395535;19;20021;-65
2022/05/05 07:59:52;;;;;;;4.13;1.23;;;;;;;15.38;68.43;101923.34;7392120;19;20500;-64
2022/05/05 08:02:20;;;;;;;9.07;2.05;;;;;;;15.44;68.25;101921.88;7392073;19;20024;-66
2022/05/05 08:04:47;;;;;;;8.55;2.22;;;;;;;15.47;68.98;101922.38;7389694;19;20011;-65
2022/05/05 08:07:14;;;;;;;6.45;1.60;;;;;;;15.41;70.03;101925.66;7390818;19;20388;-65
2022/05/05 08:09:41;;;;;;;4.20;1.17;;;;;;;15.47;71.32;101925.03;7389175;19;20117;-67
2022/05/05 08:12:25;;;;;;;7.32;1.65;;;;;;;15.51;70.37;101923.75;7392046;19;20022;-65
2022/05/05 08:14:52;;;;;;;7.15;2.40;;;;;;;15.52;70.40;101924.59;7391181;19;20017;-65
2022/05/05 08:17:20;;;;;;;8.30;1.80;;;;;;;15.51;70.25;101933.50;7390958;19;20094;-65
2022/05/05 08:19:47;;;;;;;4.40;1.20;;;;;;;15.50;69.29;101930.00;7391897;19;20081;-64
2022/05/05 08:22:15;;;;;;;5.45;3.83;;;;;;;15.51;69.58;101931.72;7385134;19;20014;-65
2022/05/05 08:29:59;;;;;;;2.47;0.98;;;;;;;15.44;67.18;101937.78;7386677;19;20270;-63
2022/05/05 08:32:26;;;;;;;4.70;0.95;;;;;;;15.43;67.81;101942.25;7391196;19;20015;-65
2022/05/05 08:34:53;;;;;;;9.68;3.67;;;;;;;15.41;67.17;101934.44;7390982;19;20517;-66
2022/05/05 08:37:19;;;;;;;11.35;4.78;;;;;;;15.37;67.50;101945.53;7390664;19;20014;-64
2022/05/05 08:39:47;;;;;;;7.80;2.75;;;;;;;15.34;67.82;101937.88;7390258;19;20359;-65
2022/05/05 08:42:14;;;;;;;4.05;1.33;;;;;;;15.30;68.08;101942.66;7389512;19;20011;-65
2022/05/05 08:44:41;;;;;;;4.43;1.10;;;;;;;15.27;67.68;101935.03;7390782;19;20017;-64
2022/05/05 08:47:10;;;;;;;3.42;1.13;;;;;;;15.26;67.68;101946.63;7389934;19;20011;-64
2022/05/05 08:49:40;;;;;;;3.10;1.02;;;;;;;15.27;68.25;101940.34;7390415;19;20311;-65
2022/05/05 08:52:08;;;;;;;3.55;1.30;;;;;;;15.27;68.26;101939.50;7391464;19;20019;-65
2022/05/05 08:54:39;;;;;;;3.05;1.30;;;;;;;15.25;68.16;101947.59;7388982;19;20011;-63
2022/05/05 08:57:06;;;;;;;5.18;1.35;;;;;;;15.32;69.81;101943.34;7387539;19;20082;-65
2022/05/05 08:59:34;;;;;;;7.57;1.35;;;;;;;15.38;69.24;101948.03;7390838;19;20010;-63
2022/05/05 09:02:01;;;;;;;3.47;0.90;;;;;;;15.48;68.25;101950.59;7387547;19;20563;-65
2022/05/05 09:04:28;;;;;;;5.70;3.10;;;;;;;15.60;69.21;101949.34;7390869;19;20011;-63
2022/05/05 09:06:55;;;;;;;4.07;1.00;;;;;;;15.68;68.74;101952.06;7386154;19;20024;-67
2022/05/05 09:09:28;;;;;;;2.42;0.82;;;;;;;15.73;67.67;101962.19;7387408;19;20045;-64
2022/05/05 09:12:04;;;;;;;2.22;0.70;;;;;;;15.65;66.02;101960.31;7386267;19;20110;-64
2022/05/05 09:14:43;;;;;;;4.88;1.13;;;;;;;15.62;66.26;101960.63;7389369;19;20018;-65
2022/05/05 09:17:20;;;;;;;2.67;0.80;;;;;;;15.74;65.90;101966.50;7392249;19;20464;-64
2022/05/05 09:19:52;;;;;;;3.10;0.73;;;;;;;15.80;65.27;101957.88;7390894;19;20025;-65
2022/05/05 09:22:27;;;;;;;5.55;0.90;;;;;;;15.78;65.75;101958.06;7388378;19;20547;-64
2022/05/05 09:24:58;;;;;;;3.65;0.90;;;;;;;15.81;66.29;101963.03;7386772;19;20443;-65
2022/05/05 09:27:35;;;;;;;3.97;0.90;;;;;;;15.90;66.24;101952.47;7387570;19;20225;-65
2022/05/05 09:30:04;;;;;;;2.63;0.63;;;;;;;15.92;66.24;101953.97;7384856;19;20006;-65
2022/05/05 09:32:34;;;;;;;2.67;0.73;;;;;;;15.96;67.71;101957.13;7389669;19;20022;-68
2022/05/05 09:35:06;;;;;;;1.67;0.70;;;;;;;15.99;66.39;101962.97;7386428;19;20371;-65
2022/05/05 09:37:33;;;;;;;4.85;0.90;;;;;;;16.04;64.73;101951.88;7387973;19;20006;-65
2022/05/05 09:40:02;;;;;;;1.80;0.93;;;;;;;16.04;64.37;101954.53;7387747;19;20022;-65
2022/05/05 09:42:40;;;;;;;1.30;0.60;;;;;;;16.10;63.69;101957.34;7388636;19;20493;-65
2022/05/05 09:45:16;;;;;;;2.80;0.90;;;;;;;16.19;64.32;101956.41;7388432;19;20492;-65
2022/05/05 09:47:45;;;;;;;3.88;0.70;;;;;;;16.27;64.70;101956.41;7360716;19;20022;-66
2022/05/05 09:50:13;;;;;;;3.33;0.80;;;;;;;16.30;63.66;101955.28;7386572;19;20086;-64
2022/05/05 09:58:21;;;;;;;3.85;0.90;;;;;;;16.47;62.97;101959.63;7388232;19;20017;-65
2022/05/05 10:06:22;;;;;;;4.03;1.10;;;;;;;16.67;61.54;101966.31;7386559;19;20034;-65
2022/05/05 10:08:59;;;;;;;4.47;1.50;;;;;;;16.75;61.42;101965.50;7386321;19;20019;-65
2022/05/05 10:11:27;;;;;;;1.20;0.65;;;;;;;16.84;59.45;101967.19;7385083;19;20011;-64
2022/05/05 10:13:56;;;;;;;3.47;0.90;;;;;;;16.91;60.51;101968.19;7384891;19;20038;-65
2022/05/05 10:16:23;;;;;;;1.85;0.70;;;;;;;17.05;58.53;101967.50;7385309;19;20112;-65
2022/05/05 10:18:51;;;;;;;2.97;0.80;;;;;;;17.09;58.46;101963.50;7387615;19;20022;-64
2022/05/05 10:21:46;;;;;;;3.92;0.95;;;;;;;17.15;58.82;101974.47;7384955;19;20025;-65
2022/05/05 10:24:25;;;;;;;3.20;0.60;;;;;;;17.24;59.29;101971.66;7386525;19;20006;-66
2022/05/05 10:26:54;;;;;;;3.33;0.60;;;;;;;17.18;59.30;101969.66;7385873;19;20595;-64
2022/05/05 10:29:40;;;;;;;3.08;1.00;;;;;;;17.16;59.90;101966.34;7388340;19;20050;-64
2022/05/05 10:32:09;;;;;;;3.40;0.63;;;;;;;17.11;59.58;101966.03;7363357;19;20032;-65
2022/05/05 10:34:46;;;;;;;2.53;0.70;;;;;;;17.11;60.58;101966.03;7388053;19;20027;-66
2022/05/05 10:37:17;;;;;;;2.83;1.13;;;;;;;17.12;61.03;101975.63;7387354;19;20134;-65
2022/05/05 10:40:08;;;;;;;6.57;1.05;;;;;;;17.19;59.18;101968.66;7386986;19;20558;-65
2022/05/05 10:42:44;;;;;;;5.35;1.67;;;;;;;17.16;58.66;101970.84;7385181;19;20007;-65
2022/05/05 10:45:26;;;;;;;6.65;2.75;;;;;;;17.20;57.72;101973.00;7385549;19;20014;-65
2022/05/05 10:47:58;;;;;;;4.00;0.80;;;;;;;17.24;57.44;101965.50;7384590;19;20014;-64
2022/05/05 10:50:33;;;;;;;1.38;0.70;;;;;;;17.24;57.08;101971.66;7387418;19;20018;-66
2022/05/05 10:53:03;;;;;;;2.97;0.70;;;;;;;17.30;57.10;101978.97;7385146;19;20034;-64
2022/05/05 10:55:39;;;;;;;6.25;0.80;;;;;;;17.34;56.46;101976.78;7377458;19;20401;-65
2022/05/05 10:58:58;;;;;;;2.33;0.70;;;;;;;17.36;57.44;101977.47;7385238;19;20451;-65
2022/05/05 11:01:26;;;;;;;2.15;0.70;;;;;;;17.40;57.43;101976.94;7385775;19;20360;-64
2022/05/05 11:04:12;;;;;;;2.78;0.70;;;;;;;17.44;57.17;101980.09;7385164;19;20010;-64
2022/05/05 11:06:40;;;;;;;1.38;0.60;;;;;;;17.51;56.67;101984.59;7385075;19;20007;-64
2022/05/05 11:09:07;;;;;;;2.67;0.60;;;;;;;17.54;56.06;101983.41;7387281;19;20011;-64
2022/05/05 11:11:40;;;;;;;1.70;0.70;;;;;;;17.57;56.35;101980.44;7383030;19;20015;-64
2022/05/05 11:23:12;;;;;;;3.80;1.38;;;;;;;17.60;56.13;101977.44;7385445;19;20038;-65
2022/05/05 11:25:42;;;;;;;2.45;0.73;;;;;;;17.57;57.00;101974.25;7385885;19;20013;-65
2022/05/05 11:28:18;;;;;;;2.53;0.95;;;;;;;17.51;57.32;101976.59;7383646;19;20130;-65
2022/05/05 11:30:46;;;;;;;3.47;0.75;;;;;;;17.51;57.05;101984.59;7384602;19;20018;-63
2022/05/05 11:33:13;;;;;;;2.65;0.70;;;;;;;17.50;58.22;101974.09;7392865;19;20018;-64
2022/05/05 11:35:53;;;;;;;1.92;0.65;;;;;;;17.53;57.60;101982.56;7394402;19;20019;-64
2022/05/05 11:38:26;;;;;;;1.52;0.70;;;;;;;17.56;58.12;101969.94;7395463;19;20010;-64
2022/05/05 11:41:02;;;;;;;2.17;0.90;;;;;;;17.64;57.25;101977.91;7390293;19;20347;-65
2022/05/05 11:46:17;;;;;;;2.65;0.73;;;;;;;17.86;55.83;101971.88;7391629;19;20491;-64
2022/05/05 11:48:52;;;;;;;4.03;0.80;;;;;;;17.94;56.12;101970.00;7389242;19;20021;-65
2022/05/05 11:51:27;;;;;;;2.15;1.08;;;;;;;18.00;56.56;101967.66;7390452;19;20015;-65
2022/05/05 11:54:17;;;;;;;3.10;1.00;;;;;;;18.04;57.01;101967.13;7390159;19;20411;-65
2022/05/05 11:56:49;;;;;;;;;;;;;;;18.15;56.69;101961.41;7394213;19;20015;-64
2022/05/05 12:02:09;;;;;;;4.70;1.10;;;;;;;18.22;56.10;101961.56;7391348;19;20018;-62
2022/05/05 12:04:42;;;;;;;1.70;0.90;;;;;;;18.23;55.53;101964.06;7389315;19;20021;-64
2022/05/05 12:07:18;;;;;;;3.67;1.33;;;;;;;18.26;55.64;101960.19;7392894;19;20053;-65
2022/05/05 12:09:47;;;;;;;3.42;1.30;;;;;;;18.25;56.68;101964.69;7391279;19;20078;-64
2022/05/05 12:12:16;;;;;;;2.50;1.10;;;;;;;18.32;55.36;101960.34;7392478;19;20090;-64
2022/05/05 12:14:56;;;;;;;3.03;0.90;;;;;;;18.40;56.23;101956.78;7387065;19;20115;-64
2022/05/05 12:17:39;;;;;;;1.83;0.70;;;;;;;18.48;56.44;101955.91;7388604;19;20018;-65
2022/05/05 12:20:08;;;;;;;4.28;1.33;;;;;;;18.59;56.18;101955.53;7390489;19;20456;-67
2022/05/05 12:22:41;;;;;;;4.03;1.08;;;;;;;18.60;56.39;101959.84;7389392;19;20130;-64
2022/05/05 12:25:14;;;;;;;2.67;0.90;;;;;;;18.65;54.58;101955.63;7387764;19;20474;-65